Terminal Aerodrome Forecast
Issued by NWS

Home | Current Version | Previous Version | Text Only | Print | Product List | Glossary On
Versions: 1 2 3 4 5 6 7 8 9 10 11 12 13 14 15
274
FTUS43 KAPX 011146
TAFAPN
TAF
KAPN 011146Z 0112/0212 33007KT P6SM VCSH OVC012
      TEMPO 0112/0114 31009G17KT -SHRA OVC008
     FM011500 33012G21KT P6SM OVC018
     FM011700 33013G21KT P6SM BKN035
     FM011900 33013G21KT P6SM SCT040
     FM020200 30008KT P6SM SKC=

USA.gov is the U.S. government's official web portal to all federal, state and local government web resources and services.